Flight Track Log - Related Links

Times and Time Zones

All times are in EST time to prevent confusion due to time zone crossing. See the FSR411 flight status page for this flight to view local times or setup timezone preferences in your user account.

Time Position Orientation Groundspeed Altitude Reporting Facility
EST Latitude Longitude Course Direction KTS MPH feet Rate Location/Type
Tue 08:11:58 PM 42.3667 -71.0167 180° South 157 181 500  Level KA90
Tue 08:12:34 PM 42.3333 -71.0167 180° South 195 224 2,600 3,193 Climbing KA90
Tue 08:13:47 PM 42.3000 -70.9167 114° Southeast 275 316 6,300 2,908 Climbing KA90
Tue 08:15:17 PM 42.3406 -70.7756 69° East 305 351 10,500 2,821 Climbing Boston Center
Tue 08:16:18 PM 42.4247 -70.7136 29° Northeast 352 405 13,400 2,803 Climbing Boston Center
Tue 08:17:19 PM 42.5222 -70.7519 344° North 371 427 16,200 2,622 Climbing Boston Center
Tue 08:18:17 PM 42.5894 -70.8697 308° West 372 428 18,600 1,835 Climbing Boston Center
Tue 08:19:20 PM 42.6400 -70.9806 302° West 381 438 19,900 1,610 Climbing Boston Center
Tue 08:20:20 PM 42.6986 -71.1042 303° West 389 448 21,900 2,826 Climbing Boston Center
Tue 08:21:21 PM 42.7733 -71.2578 304° West 403 464 25,600 3,097 Climbing Boston Center
Tue 08:22:24 PM 42.7956 -71.3928 283° West 371 427 28,300 2,419 Climbing Boston Center
Tue 08:23:25 PM 42.8064 -71.5281 276° West 361 415 30,600 2,231 Climbing Boston Center
Tue 08:24:25 PM 42.8175 -71.6411 278° West 352 405 32,800 1,686 Climbing Boston Center
Tue 08:25:26 PM 42.8317 -71.7933 277° West 340 391 34,000 581 Climbing Boston Center
Tue 08:26:29 PM 42.8439 -71.9244 277° West 348 400 34,000 726 Level Boston Center
Tue 08:27:30 PM 42.8564 -72.0572 277° West 354 407 35,500 1,574 Climbing Boston Center
Tue 08:28:31 PM 42.8678 -72.1808 277° West 335 386 37,200 1,279 Climbing Boston Center
Tue 08:29:32 PM 42.8783 -72.2981 277° West 331 381 38,100 1,131 Climbing Boston Center
Tue 08:30:33 PM 42.8897 -72.4197 277° West 327 376 39,500 1,525 Climbing Boston Center
Tue 08:31:34 PM 42.9014 -72.5583 277° West 309 356 41,200 1,289 Climbing Boston Center
Tue 08:32:34 PM 42.9100 -72.6617 277° West 294 338 42,100 683 Climbing Boston Center
Tue 08:33:37 PM 42.9194 -72.7725 277° West 294 338 42,600 435 Climbing Boston Center
Tue 08:34:38 PM 42.9292 -72.8864 277° West 300 345 43,000 198 Climbing Boston Center
Tue 08:35:38 PM 42.9397 -73.0108 277° West 308 354 43,000  Level Boston Center
Tue 08:36:41 PM 42.9394 -73.1339 270° West 324 373 43,000  Level Boston Center
Tue 08:37:41 PM 42.9406 -73.2572 271° West 327 376 43,000  Level Boston Center
Tue 08:38:43 PM 42.9403 -73.3731 270° West 328 377 43,000  Level Boston Center
Tue 08:39:44 PM 42.9411 -73.5206 270° West 325 374 43,000  Level Boston Center
Tue 08:40:44 PM 42.9408 -73.6414 270° West 320 368 43,000  Level Boston Center
Tue 08:41:45 PM 42.9408 -73.7586 270° West 312 359 43,000  Level Boston Center
Tue 08:42:45 PM 42.9394 -73.8769 269° West 311 358 43,000  Level Boston Center
Tue 08:43:45 PM 42.9219 -73.9894 258° West 302 348 43,000  Level Boston Center
Tue 08:44:49 PM 42.9092 -74.1056 261° West 307 353 43,000  Level Boston Center
Tue 08:45:49 PM 42.8942 -74.2231 260° West 312 359 43,000  Level Boston Center
Tue 08:46:50 PM 42.8808 -74.3403 261° West 313 360 43,000  Level Boston Center
Tue 08:47:50 PM 42.8661 -74.4572 260° West 313 360 43,000  Level Boston Center
Tue 08:48:53 PM 42.8506 -74.5722 260° West 310 357 43,000  Level Boston Center
Tue 08:49:52 PM 42.8361 -74.6853 260° West 304 350 43,000  Level Boston Center
Tue 08:50:54 PM 42.8231 -74.7989 261° West 302 348 43,000  Level Boston Center
Tue 08:51:55 PM 42.8092 -74.9117 261° West 301 346 43,000  Level Boston Center
Tue 08:52:55 PM 42.7908 -75.0472 260° West 302 348 43,000  Level Boston Center
Tue 08:53:56 PM 42.7767 -75.1608 260° West 303 349 43,000  Level Boston Center
Tue 08:54:57 PM 42.7614 -75.2750 260° West 305 351 43,000  Level Boston Center
Tue 08:55:58 PM 42.7464 -75.3889 260° West 304 350 43,000  Level Boston Center
Tue 08:56:59 PM 42.7319 -75.5039 260° West 309 356 43,000  Level Boston Center
Tue 08:58:00 PM 42.7172 -75.6167 260° West 304 350 43,000  Level Boston Center
Tue 08:59:03 PM 42.7011 -75.7297 259° West 304 350 43,000  Level Boston Center
Tue 09:00:04 PM 42.6864 -75.8425 260° West 303 349 43,000  Level Boston Center
Tue 09:01:04 PM 42.6711 -75.9553 260° West 303 349 43,000  Level Boston Center
Tue 09:02:05 PM 42.6567 -76.0683 260° West 304 350 43,000  Level Boston Center
Tue 09:03:07 PM 42.6403 -76.1817 259° West 306 352 43,000  Level Boston Center
Tue 09:04:07 PM 42.6222 -76.3050 259° West 306 352 43,000  Level Boston Center
Tue 09:05:07 PM 42.6061 -76.4194 259° West 308 354 43,000  Level Boston Center
Tue 09:06:08 PM 42.5914 -76.5314 260° West 304 350 43,000  Level Boston Center
Tue 09:07:11 PM 42.5744 -76.6461 259° West 308 354 43,000  Level Boston Center
Tue 09:08:12 PM 42.5586 -76.7589 259° West 306 352 43,000  Level Boston Center
Tue 09:09:13 PM 42.5417 -76.8731 259° West 308 354 43,000  Level Boston Center
Tue 09:10:14 PM 42.5253 -76.9853 259° West 306 352 43,000  Level Boston Center
Tue 09:11:14 PM 42.5083 -77.0997 259° West 309 356 43,000  Level Boston Center
Tue 09:12:16 PM 42.4908 -77.2161 259° West 313 360 43,000  Level Boston Center
Tue 09:13:17 PM 42.4706 -77.3558 259° West 313 360 43,000  Level Boston Center
Tue 09:14:43 PM 42.4458 -77.5036 257° West 310 357 43,000  Level Cleveland Center
Tue 09:15:45 PM 42.4256 -77.6353 258° West 311 358 43,000  Level Cleveland Center
Tue 09:16:46 PM 42.4092 -77.7458 259° West 309 356 43,000  Level Cleveland Center
Tue 09:17:48 PM 42.3911 -77.8611 258° West 311 358 43,000  Level Cleveland Center
Tue 09:18:50 PM 42.3756 -77.9761 260° West 310 357 43,000  Level Cleveland Center
Tue 09:19:52 PM 42.3686 -78.0956 266° West 315 362 43,000  Level Cleveland Center
Tue 09:20:53 PM 42.3589 -78.2153 264° West 321 369 43,000  Level Cleveland Center
Tue 09:21:55 PM 42.3483 -78.3589 264° West 320 368 43,000  Level Cleveland Center
Tue 09:22:57 PM 42.3397 -78.4789 264° West 321 369 43,000  Level Cleveland Center
Tue 09:23:59 PM 42.3306 -78.5989 264° West 322 371 43,000  Level Cleveland Center
Tue 09:25:00 PM 42.3206 -78.7192 264° West 324 373 43,000  Level Cleveland Center
Tue 09:26:02 PM 42.3119 -78.8414 265° West 326 375 43,000  Level Cleveland Center
Tue 09:27:04 PM 42.3019 -78.9839 265° West 335 386 43,000  Level Cleveland Center
Tue 09:28:05 PM 42.2925 -79.1056 264° West 330 380 43,000  Level Cleveland Center
Tue 09:29:07 PM 42.2819 -79.2297 263° West 334 384 43,000  Level Cleveland Center
Tue 09:30:08 PM 42.2717 -79.3533 264° West 335 386 43,000  Level Cleveland Center
Tue 09:31:10 PM 42.2622 -79.4778 264° West 338 389 43,000  Level Cleveland Center
Tue 09:32:12 PM 42.2522 -79.6019 264° West 338 389 43,000  Level Cleveland Center
Tue 09:33:13 PM 42.2406 -79.7283 263° West 341 392 43,000  Level Cleveland Center
Tue 09:34:15 PM 42.2283 -79.8806 264° West 342 394 43,000  Level Cleveland Center
Tue 09:35:17 PM 42.2153 -80.0139 263° West 355 409 43,000  Level Cleveland Center
Tue 09:36:18 PM 42.2042 -80.1511 264° West 361 415 43,000  Level Cleveland Center
Tue 09:37:20 PM 42.1914 -80.2825 263° West 354 407 43,000  Level Cleveland Center
Tue 09:38:21 PM 42.1797 -80.4197 264° West 366 421 43,000  Level Cleveland Center
Tue 09:39:23 PM 42.1669 -80.5561 263° West 366 421 43,000  Level Cleveland Center
Tue 09:40:25 PM 42.1539 -80.6936 263° West 368 423 43,000  Level Cleveland Center
Tue 09:41:26 PM 42.1406 -80.8331 263° West 372 428 43,000  Level Cleveland Center
Tue 09:42:28 PM 42.1272 -80.9700 263° West 367 422 43,000  Level Cleveland Center
Tue 09:43:29 PM 42.1117 -81.1306 263° West 368 423 43,000  Level Cleveland Center
Tue 09:44:31 PM 42.0978 -81.2686 262° West 370 426 43,000  Level Cleveland Center
Tue 09:45:32 PM 42.0847 -81.4061 263° West 369 425 43,000  Level Cleveland Center
Tue 09:46:34 PM 42.0542 -81.5369 253° West 364 419 43,000  Level Cleveland Center
Tue 09:47:36 PM 42.0192 -81.6653 250° West 364 419 43,000  Level Cleveland Center
Tue 09:48:37 PM 41.9850 -81.7950 251° West 366 421 43,000  Level Cleveland Center
Tue 09:49:39 PM 41.9500 -81.9253 250° West 368 423 43,000  Level Cleveland Center
Tue 09:50:40 PM 41.9153 -82.0544 250° West 366 421 43,000  Level Cleveland Center
Tue 09:51:42 PM 41.8792 -82.1919 251° West 367 422 43,000  Level Cleveland Center
Tue 09:52:44 PM 41.8442 -82.3214 250° West 369 425 43,000  Level Cleveland Center
Tue 09:53:45 PM 41.8100 -82.4500 250° West 366 421 43,000  Level Cleveland Center
Tue 09:54:47 PM 41.7753 -82.5794 250° West 368 423 43,000  Level Cleveland Center
Tue 09:55:48 PM 41.7400 -82.7094 250° West 370 426 43,000  Level Cleveland Center
Tue 09:56:50 PM 41.6969 -82.8650 250° West 372 428 43,000  Level Cleveland Center
Tue 09:57:52 PM 41.6611 -82.9950 250° West 372 428 43,000  Level Cleveland Center
Tue 09:58:54 PM 41.6269 -83.1158 249° West 371 427 43,000  Level Cleveland Center
Tue 09:59:55 PM 41.5886 -83.2544 250° West 373 429 43,000  Level Cleveland Center
Tue 10:00:57 PM 41.5519 -83.3836 249° West 372 428 43,000  Level Cleveland Center
Tue 10:01:58 PM 41.5156 -83.5147 250° West 376 433 43,000  Level Cleveland Center
Tue 10:03:00 PM 41.4786 -83.6472 250° West 380 437 43,000  Level Cleveland Center
Tue 10:04:01 PM 41.4406 -83.7786 249° West 379 436 43,000  Level Cleveland Center
Tue 10:05:03 PM 41.4019 -83.9106 249° West 381 438 43,000  Level Cleveland Center
Tue 10:05:51 PM 41.3647 -84.0392 249° West 382 440 43,000  Level Chicago Center
Tue 10:06:53 PM 41.3269 -84.1719 249° West 382 440 43,000  Level Chicago Center
Tue 10:07:54 PM 41.2889 -84.3036 249° West 382 440 43,000  Level Chicago Center
Tue 10:08:55 PM 41.2500 -84.4361 249° West 384 442 43,000  Level Chicago Center
Tue 10:09:57 PM 41.2108 -84.5675 248° West 382 440 43,000  Level Chicago Center
Tue 10:10:58 PM 41.1722 -84.7003 249° West 385 443 43,000  Level Chicago Center
Tue 10:11:59 PM 41.1328 -84.8314 248° West 383 441 43,000  Level Chicago Center
Tue 10:13:01 PM 41.0936 -84.9628 248° West 381 438 43,000  Level Chicago Center
Tue 10:14:02 PM 41.0550 -85.0931 249° West 381 438 43,000  Level Chicago Center
Tue 10:15:03 PM 41.0150 -85.2244 248° West 382 440 43,000  Level Chicago Center
Tue 10:16:05 PM 40.9667 -85.3822 248° West 384 442 43,000  Level Chicago Center
Tue 10:17:06 PM 40.9278 -85.5131 249° West 383 441 43,000  Level Chicago Center
Tue 10:18:07 PM 40.8875 -85.6456 248° West 388 447 43,000  Level Chicago Center
Tue 10:19:09 PM 40.8450 -85.7761 247° West 387 445 43,000 -683 Level Chicago Center
Tue 10:20:10 PM 40.7897 -85.8950 238° Southwest 381 438 41,600 -1,721 Descending Chicago Center
Tue 10:21:11 PM 40.7317 -86.0069 236° Southwest 371 427 39,500 -2,146 Descending Chicago Center
Tue 10:22:13 PM 40.6786 -86.1231 239° Southwest 373 429 37,200 -2,244 Descending Chicago Center
Tue 10:23:14 PM 40.6397 -86.2506 248° West 378 435 34,900 -2,607 Descending Chicago Center
Tue 10:24:15 PM 40.5975 -86.4014 250° West 373 429 31,900 -2,732 Descending Chicago Center
Tue 10:25:17 PM 40.5628 -86.5206 249° West 360 414 29,300 -2,488 Descending Chicago Center
Tue 10:26:18 PM 40.5258 -86.6464 249° West 365 420 26,800 -2,361 Descending Chicago Center
Tue 10:27:19 PM 40.4875 -86.7792 249° West 386 444 24,500 -2,341 Descending Chicago Center
Tue 10:28:21 PM 40.4494 -86.9072 249° West 382 440 22,000 -2,439 Descending Chicago Center
Tue 10:29:22 PM 40.4164 -87.0261 250° West 357 411 19,500 -2,361 Descending Chicago Center
Tue 10:30:23 PM 40.3808 -87.1433 248° West 350 403 17,200 -2,244 Descending Chicago Center
Tue 10:31:25 PM 40.3394 -87.2842 249° West 347 399 14,900 -2,049 Descending Chicago Center
Tue 10:32:26 PM 40.3056 -87.3986 249° West 341 392 13,000 -1,820 Descending Chicago Center
Tue 10:33:27 PM 40.2708 -87.5086 248° West 310 357 11,200 -1,610 Descending Chicago Center
Tue 10:34:29 PM 40.2317 -87.5914 238° Southwest 279 321 9,700 -1,610 Descending Chicago Center
Tue 10:35:30 PM 40.1958 -87.6742 240° Southwest 265 305 7,900 -1,721 Descending Chicago Center
Tue 10:36:31 PM 40.1608 -87.7511 239° Southwest 265 305 6,200 -1,756 Descending Chicago Center
Tue 10:37:33 PM 40.1225 -87.8367 240° Southwest 260 299 4,300 -1,073 Descending Chicago Center
Tue 10:38:34 PM 40.0864 -87.9150 239° Southwest 259 298 4,000 -295 Descending Chicago Center
Tue 10:40:00 PM 40.0649 -88.0799 252° West  Level Estimated
Tue 10:47:00 PM 40.0333 -88.2667 252° West  Level FlightAware Approximate
Tue 10:48:00 PM 40.0388 -88.2778 252° West  Level Estimated
Tue 10:49:00 PM 40.0388 -88.2778 252° West  Level Estimated
Tue 10:50:00 PM 40.0388 -88.2778 252° West  Level Estimated
Tue 10:51:00 PM 40.0388 -88.2778 252° West  Level Estimated
Tue 10:52:00 PM 40.0388 -88.2778 252° West  Level Estimated

Login

Don't have an account? Register now (free) for customized features, flight alerts, and more!